Time;durP1;ratioP1;P1;durP2;ratioP2;P2;SDS_P1;SDS_P2;PMS_P1;PMS_P2;Temp;Humidity;BMP_temperature;BMP_pressure;BME280_temperature;BME280_humidity;BME280_pressure;Samples;Min_cycle;Max_cycle;Signal;HPM_P1;HPM_P2
2023/09/21 00:01:06;;;;;;;21.83;14.88;;;19.70;99.90;;;;;;6224172;23;20036;-78
2023/09/21 00:03:35;;;;;;;21.92;14.60;;;19.60;99.90;;;;;;6217259;23;20027;-78
2023/09/21 00:06:03;;;;;;;24.70;14.88;;;19.70;99.90;;;;;;6225842;23;20033;-78
2023/09/21 00:08:31;;;;;;;19.63;14.15;;;19.80;99.90;;;;;;6197662;23;20598;-79
2023/09/21 00:11:00;;;;;;;23.90;14.63;;;19.90;99.90;;;;;;6234667;23;20021;-81
2023/09/21 00:13:31;;;;;;;20.63;15.02;;;19.90;99.90;;;;;;6224350;23;20051;-80
2023/09/21 00:16:00;;;;;;;21.27;15.40;;;20.00;99.90;;;;;;6188220;23;20013;-78
2023/09/21 00:18:29;;;;;;;23.38;15.30;;;20.10;99.90;;;;;;6213898;23;20021;-78
2023/09/21 00:21:00;;;;;;;18.95;15.20;;;20.10;99.90;;;;;;6215586;23;20140;-78
2023/09/21 00:23:36;;;;;;;23.15;15.25;;;20.00;99.90;;;;;;6217851;23;20075;-79
2023/09/21 00:26:07;;;;;;;25.98;15.85;;;20.00;99.90;;;;;;6213055;23;20029;-80
2023/09/21 00:28:36;;;;;;;24.67;15.77;;;20.00;99.90;;;;;;6188707;23;20021;-79
2023/09/21 00:31:04;;;;;;;24.63;15.77;;;19.90;99.90;;;;;;6213436;23;20465;-80
2023/09/21 00:33:35;;;;;;;19.30;15.23;;;19.90;99.90;;;;;;6187381;23;20025;-79
2023/09/21 00:36:07;;;;;;;20.15;14.77;;;19.90;99.90;;;;;;6187865;23;20020;-79
2023/09/21 00:38:35;;;;;;;24.77;16.88;;;19.80;99.90;;;;;;6188034;23;20397;-79
2023/09/21 00:41:05;;;;;;;22.75;14.80;;;19.90;99.90;;;;;;6187532;23;20039;-79
2023/09/21 00:43:32;;;;;;;25.52;14.40;;;19.80;99.90;;;;;;6212038;23;20020;-78
2023/09/21 00:46:05;;;;;;;21.15;14.15;;;19.80;99.90;;;;;;6213418;23;20044;-80
2023/09/21 00:48:36;;;;;;;22.52;14.43;;;19.90;99.90;;;;;;6237409;23;20099;-79
2023/09/21 00:51:07;;;;;;;22.05;14.88;;;19.80;99.90;;;;;;6210182;23;20035;-79
2023/09/21 00:53:36;;;;;;;17.45;13.77;;;19.80;99.90;;;;;;6215527;23;20057;-80
2023/09/21 00:56:09;;;;;;;18.48;13.55;;;19.80;99.90;;;;;;6219917;23;20024;-78
2023/09/21 00:58:38;;;;;;;18.85;14.07;;;19.80;99.90;;;;;;6225369;23;20120;-79
2023/09/21 01:01:08;;;;;;;20.48;14.70;;;19.80;99.90;;;;;;6256297;23;20016;-81
2023/09/21 01:03:37;;;;;;;16.80;13.20;;;19.80;99.90;;;;;;6262111;23;20040;-78
2023/09/21 01:06:11;;;;;;;20.63;13.63;;;19.80;99.90;;;;;;6221055;23;20020;-79
2023/09/21 01:08:39;;;;;;;18.45;13.70;;;19.80;99.90;;;;;;6245933;23;20016;-80
2023/09/21 01:11:14;;;;;;;24.75;14.23;;;19.90;99.90;;;;;;6248331;23;20035;-79
2023/09/21 01:13:41;;;;;;;21.30;14.67;;;19.80;99.90;;;;;;6214440;23;20039;-81
2023/09/21 01:16:11;;;;;;;21.20;14.65;;;19.70;99.90;;;;;;6215067;23;20056;-79
2023/09/21 01:18:40;;;;;;;21.83;14.60;;;19.70;99.90;;;;;;6215564;23;20027;-79
2023/09/21 01:21:09;;;;;;;19.02;13.57;;;19.70;99.90;;;;;;6215145;23;20611;-80
2023/09/21 01:23:42;;;;;;;17.77;13.10;;;19.80;99.90;;;;;;6244507;23;20465;-78
2023/09/21 01:26:11;;;;;;;19.45;13.20;;;19.70;99.90;;;;;;6247436;23;20024;-79
2023/09/21 01:28:39;;;;;;;21.55;13.75;;;19.80;99.90;;;;;;6249448;23;20082;-79
2023/09/21 01:31:11;;;;;;;19.20;14.60;;;19.80;99.90;;;;;;6251805;23;20012;-78
2023/09/21 01:33:39;;;;;;;18.42;14.25;;;19.80;99.90;;;;;;6212928;23;20020;-80
2023/09/21 01:36:08;;;;;;;18.50;14.95;;;19.70;99.90;;;;;;6213967;23;20016;-79
2023/09/21 01:38:37;;;;;;;18.30;13.93;;;19.70;99.90;;;;;;6214411;23;20016;-78
2023/09/21 01:41:07;;;;;;;19.42;12.75;;;19.70;99.90;;;;;;6214383;23;20020;-79
2023/09/21 01:43:34;;;;;;;15.93;13.05;;;19.80;99.90;;;;;;6248571;23;20099;-79
2023/09/21 01:46:04;;;;;;;21.10;13.50;;;19.90;99.90;;;;;;6252140;23;20023;-78
2023/09/21 01:48:32;;;;;;;19.15;13.75;;;19.90;99.90;;;;;;6215196;23;20020;-79
2023/09/21 01:50:59;;;;;;;18.85;12.80;;;19.80;99.90;;;;;;6214104;23;20416;-80
2023/09/21 01:53:27;;;;;;;20.13;13.70;;;19.70;99.90;;;;;;6213748;23;20020;-79
2023/09/21 01:55:55;;;;;;;19.15;13.65;;;19.70;99.90;;;;;;6214809;23;20019;-80
2023/09/21 01:58:24;;;;;;;16.92;12.77;;;19.60;99.90;;;;;;6214313;23;20024;-78
2023/09/21 02:00:52;;;;;;;20.20;13.77;;;19.50;99.90;;;;;;6215067;23;20012;-78
2023/09/21 02:03:28;;;;;;;17.88;13.65;;;19.40;99.90;;;;;;6241603;23;20452;-77
2023/09/21 02:05:57;;;;;;;19.58;14.27;;;19.40;99.90;;;;;;6243924;23;20545;-77
2023/09/21 02:08:25;;;;;;;22.63;13.98;;;19.40;99.90;;;;;;6213850;23;20024;-79
2023/09/21 02:10:52;;;;;;;24.02;14.20;;;19.50;99.90;;;;;;6247844;23;20059;-79
2023/09/21 02:13:20;;;;;;;20.73;13.65;;;19.50;99.90;;;;;;6213740;23;20024;-78
2023/09/21 02:15:51;;;;;;;19.98;14.30;;;19.50;99.90;;;;;;6214763;23;20031;-78
2023/09/21 02:18:19;;;;;;;18.92;14.05;;;19.40;99.90;;;;;;6242559;23;20020;-79
2023/09/21 02:20:46;;;;;;;21.85;14.00;;;19.50;99.90;;;;;;6214177;23;20016;-78
2023/09/21 02:23:15;;;;;;;20.45;14.30;;;19.40;99.90;;;;;;6245856;23;20026;-78
2023/09/21 02:25:42;;;;;;;18.63;13.35;;;19.40;99.90;;;;;;6214070;23;20028;-79
2023/09/21 02:28:11;;;;;;;17.20;13.52;;;19.40;99.90;;;;;;6228077;23;20016;-78
2023/09/21 02:30:42;;;;;;;19.92;13.57;;;19.40;99.90;;;;;;6229322;23;20043;-78
2023/09/21 02:33:12;;;;;;;19.77;14.23;;;19.40;99.90;;;;;;6215158;23;20476;-79
2023/09/21 02:35:41;;;;;;;21.70;15.05;;;19.40;99.90;;;;;;6214810;23;20087;-78
2023/09/21 02:38:09;;;;;;;19.73;14.05;;;19.30;99.90;;;;;;6209487;23;20020;-79
2023/09/21 02:40:38;;;;;;;19.85;14.80;;;19.30;99.90;;;;;;6209608;23;20315;-79
2023/09/21 02:43:07;;;;;;;18.42;13.88;;;19.20;99.90;;;;;;6208531;23;20036;-78
2023/09/21 02:45:36;;;;;;;18.17;14.30;;;19.20;99.90;;;;;;6210360;23;20079;-79
2023/09/21 02:48:04;;;;;;;17.38;13.27;;;19.20;99.90;;;;;;6212796;23;20095;-79
2023/09/21 02:50:34;;;;;;;17.02;14.32;;;19.20;99.90;;;;;;6211650;23;20728;-79
2023/09/21 02:53:06;;;;;;;20.02;13.80;;;19.20;99.90;;;;;;6210759;23;20020;-79
2023/09/21 02:55:35;;;;;;;20.80;14.60;;;19.20;99.90;;;;;;6210729;23;20031;-77
2023/09/21 02:58:06;;;;;;;20.83;14.80;;;19.10;99.90;;;;;;6211665;23;20020;-80
2023/09/21 03:00:39;;;;;;;19.00;14.68;;;19.10;99.90;;;;;;6181376;23;20067;-79
2023/09/21 03:03:08;;;;;;;20.42;14.98;;;18.90;99.90;;;;;;6180977;23;20100;-79
2023/09/21 03:05:40;;;;;;;18.45;14.48;;;18.90;99.90;;;;;;6179955;23;20112;-80
2023/09/21 03:08:13;;;;;;;16.55;13.75;;;18.90;99.90;;;;;;6180569;23;20474;-79
2023/09/21 03:10:41;;;;;;;17.02;14.10;;;18.90;99.90;;;;;;6189464;23;20095;-78
2023/09/21 03:13:17;;;;;;;20.17;15.00;;;19.00;99.90;;;;;;6191879;23;20037;-77
2023/09/21 03:15:47;;;;;;;23.38;13.73;;;19.10;99.90;;;;;;6193093;23;20025;-78
2023/09/21 03:18:15;;;;;;;18.65;14.52;;;19.20;99.90;;;;;;6181659;23;20116;-78
2023/09/21 03:20:44;;;;;;;16.75;13.88;;;19.10;99.90;;;;;;6185579;23;20024;-79
2023/09/21 03:23:12;;;;;;;20.08;15.30;;;19.00;99.90;;;;;;6180409;23;20020;-79
2023/09/21 03:25:42;;;;;;;16.70;14.27;;;19.00;99.90;;;;;;6180627;23;20120;-80
2023/09/21 03:28:13;;;;;;;18.23;14.98;;;19.00;99.90;;;;;;6191642;23;20013;-79
2023/09/21 03:30:40;;;;;;;20.42;14.40;;;18.90;99.90;;;;;;6181115;23;20072;-81
2023/09/21 03:33:08;;;;;;;23.02;15.90;;;18.90;99.90;;;;;;6180958;23;20025;-79
2023/09/21 03:35:37;;;;;;;20.75;13.88;;;18.90;99.90;;;;;;6183010;23;20029;-80
2023/09/21 03:38:10;;;;;;;21.60;14.52;;;18.90;99.90;;;;;;6187574;23;20108;-79
2023/09/21 03:40:38;;;;;;;18.40;14.95;;;18.80;99.90;;;;;;6190392;23;20695;-79
2023/09/21 03:43:06;;;;;;;19.02;15.40;;;18.80;99.90;;;;;;6196957;23;20017;-77
2023/09/21 03:45:37;;;;;;;19.63;14.90;;;18.70;99.90;;;;;;6185058;23;20024;-77
2023/09/21 03:48:06;;;;;;;18.20;15.57;;;18.70;99.90;;;;;;6180379;23;20123;-78
2023/09/21 03:50:34;;;;;;;21.13;15.07;;;18.60;99.90;;;;;;6180888;23;20021;-79
2023/09/21 03:53:04;;;;;;;20.30;15.25;;;18.80;99.90;;;;;;6187883;23;20028;-79
2023/09/21 03:55:34;;;;;;;23.20;15.02;;;18.80;99.90;;;;;;6180772;23;20024;-78
2023/09/21 03:58:02;;;;;;;17.77;14.35;;;18.70;99.90;;;;;;6182842;23;20085;-80
2023/09/21 04:00:36;;;;;;;20.95;14.68;;;18.80;99.90;;;;;;6182295;23;20029;-78
2023/09/21 04:03:06;;;;;;;20.83;15.67;;;18.80;99.90;;;;;;6183419;23;20025;-80
2023/09/21 04:05:39;;;;;;;23.02;15.40;;;18.70;99.90;;;;;;6180562;23;20310;-78
2023/09/21 04:08:07;;;;;;;20.02;15.50;;;18.70;99.90;;;;;;6180056;23;20020;-79
2023/09/21 04:10:40;;;;;;;19.77;16.05;;;18.60;99.90;;;;;;6180725;23;20341;-80
2023/09/21 04:13:07;;;;;;;20.80;15.55;;;18.60;99.90;;;;;;6180143;23;20044;-79
2023/09/21 04:15:35;;;;;;;21.25;15.02;;;18.60;99.90;;;;;;6181072;23;20355;-80
2023/09/21 04:18:09;;;;;;;22.98;15.02;;;18.60;99.90;;;;;;6184209;23;20029;-79
2023/09/21 04:20:40;;;;;;;20.20;14.68;;;18.70;99.90;;;;;;6185501;23;20083;-79
2023/09/21 04:23:08;;;;;;;21.20;14.77;;;18.70;99.90;;;;;;6187580;23;20020;-80
2023/09/21 04:25:36;;;;;;;19.77;15.00;;;18.60;99.90;;;;;;6180201;23;20025;-79
2023/09/21 04:28:06;;;;;;;18.98;14.63;;;18.60;99.90;;;;;;6180821;23;20342;-80
2023/09/21 04:30:34;;;;;;;18.85;15.10;;;18.60;99.90;;;;;;6232905;23;20050;-80
2023/09/21 04:33:04;;;;;;;19.52;14.80;;;18.60;99.90;;;;;;6214876;23;20028;-77
2023/09/21 04:35:31;;;;;;;19.35;15.02;;;18.70;99.90;;;;;;6215936;23;20187;-78
2023/09/21 04:37:59;;;;;;;20.75;15.60;;;18.70;99.90;;;;;;6220180;23;20027;-80
2023/09/21 04:40:27;;;;;;;22.48;15.95;;;18.70;99.90;;;;;;6228915;23;20024;-80
2023/09/21 04:42:56;;;;;;;20.90;16.10;;;18.70;99.90;;;;;;6228855;23;20024;-81
2023/09/21 04:45:27;;;;;;;20.00;15.57;;;18.70;99.90;;;;;;6221716;23;20056;-80
2023/09/21 04:48:00;;;;;;;24.50;16.30;;;18.60;99.90;;;;;;6235495;23;20039;-78
2023/09/21 04:50:32;;;;;;;26.15;15.52;;;18.60;99.90;;;;;;6219428;23;20063;-77
2023/09/21 04:52:59;;;;;;;23.17;16.55;;;18.50;99.90;;;;;;6222776;23;20046;-79
2023/09/21 04:55:26;;;;;;;26.02;16.80;;;18.50;99.90;;;;;;6218714;23;20089;-79
2023/09/21 04:57:55;;;;;;;23.08;17.65;;;18.40;99.90;;;;;;6216239;23;20480;-79
2023/09/21 05:00:23;;;;;;;22.13;16.80;;;18.50;99.90;;;;;;6215421;23;20024;-81
2023/09/21 05:02:52;;;;;;;40.35;18.08;;;18.60;99.90;;;;;;6215161;23;20027;-81
2023/09/21 05:05:26;;;;;;;20.17;15.52;;;18.70;99.90;;;;;;6217492;23;20023;-78
2023/09/21 05:07:53;;;;;;;19.67;16.58;;;18.70;99.90;;;;;;6216185;23;20020;-79
2023/09/21 05:10:21;;;;;;;21.25;17.05;;;18.70;99.90;;;;;;6215663;23;20320;-80
2023/09/21 05:12:51;;;;;;;21.88;15.90;;;18.70;99.90;;;;;;6214309;23;20040;-79
2023/09/21 05:15:19;;;;;;;22.63;16.02;;;18.70;99.90;;;;;;6242858;23;20086;-80
2023/09/21 05:17:46;;;;;;;24.60;15.85;;;18.90;99.90;;;;;;6214793;23;20024;-78
2023/09/21 05:20:15;;;;;;;26.60;14.95;;;19.00;99.90;;;;;;6247489;23;20054;-79
2023/09/21 05:22:43;;;;;;;25.20;15.77;;;19.10;99.90;;;;;;6248547;23;20393;-77
2023/09/21 05:25:11;;;;;;;33.78;18.40;;;19.30;99.90;;;;;;6215100;23;20024;-78
2023/09/21 05:27:38;;;;;;;21.05;15.63;;;19.50;99.90;;;;;;6252398;23;20016;-79
2023/09/21 05:30:08;;;;;;;29.88;15.95;;;19.40;99.90;;;;;;6243016;23;20099;-78
2023/09/21 05:32:36;;;;;;;27.95;16.20;;;19.40;99.90;;;;;;6244923;23;20032;-78
2023/09/21 05:35:05;;;;;;;19.10;14.48;;;19.30;99.90;;;;;;6246498;23;20500;-79
2023/09/21 05:37:34;;;;;;;26.55;18.00;;;19.30;99.90;;;;;;6214492;23;20024;-79
2023/09/21 05:40:05;;;;;;;25.02;16.20;;;19.40;99.90;;;;;;6251835;23;20012;-78
2023/09/21 05:42:33;;;;;;;27.60;16.08;;;19.50;99.90;;;;;;6210542;23;20020;-78
2023/09/21 05:45:00;;;;;;;20.02;14.32;;;19.70;99.90;;;;;;6213115;22;20035;-78
2023/09/21 05:47:27;;;;;;;20.83;14.00;;;19.80;99.90;;;;;;6215726;23;20024;-79
2023/09/21 05:49:55;;;;;;;51.20;17.65;;;19.90;99.90;;;;;;6217565;23;20031;-78
2023/09/21 05:52:24;;;;;;;28.50;14.77;;;20.00;99.90;;;;;;6182929;23;20075;-79
2023/09/21 05:54:53;;;;;;;36.92;18.70;;;20.00;99.90;;;;;;6221471;23;20017;-79
2023/09/21 05:57:21;;;;;;;21.67;14.23;;;20.20;99.90;;;;;;6212787;23;20078;-77
2023/09/21 05:59:49;;;;;;;22.23;16.05;;;20.20;99.90;;;;;;6213682;23;20099;-78
2023/09/21 06:02:16;;;;;;;21.15;13.98;;;20.40;99.90;;;;;;6215477;23;20120;-79
2023/09/21 06:04:44;;;;;;;20.30;14.23;;;20.50;99.90;;;;;;6218580;23;20028;-79
2023/09/21 06:07:11;;;;;;;24.73;15.63;;;20.60;99.90;;;;;;6220325;23;20024;-80
2023/09/21 06:09:39;;;;;;;22.02;14.02;;;20.80;99.90;;;;;;6184659;23;20027;-78
2023/09/21 06:12:10;;;;;;;34.13;17.13;;;20.90;99.90;;;;;;6212015;23;20021;-79
2023/09/21 06:14:37;;;;;;;34.65;23.90;;;21.00;99.90;;;;;;6214736;23;20023;-78
2023/09/21 06:17:05;;;;;;;25.13;13.70;;;21.10;99.90;;;;;;6183940;23;20083;-78
2023/09/21 06:19:33;;;;;;;26.40;16.52;;;21.20;99.90;;;;;;6219553;23;20016;-78
2023/09/21 06:22:01;;;;;;;28.83;18.08;;;21.30;99.90;;;;;;6183872;23;20031;-77
2023/09/21 06:24:28;;;;;;;35.38;19.08;;;21.30;99.90;;;;;;6210952;23;20239;-78
2023/09/21 06:26:56;;;;;;;24.38;15.02;;;21.30;99.90;;;;;;6183680;23;20048;-79
2023/09/21 06:29:25;;;;;;;24.83;15.00;;;21.30;99.90;;;;;;6214634;23;20020;-78
2023/09/21 06:31:54;;;;;;;23.75;14.40;;;21.30;99.90;;;;;;6216752;23;20023;-78
2023/09/21 06:34:24;;;;;;;22.88;15.00;;;21.30;99.90;;;;;;6220320;23;20012;-80
2023/09/21 06:36:52;;;;;;;21.55;15.15;;;21.30;99.90;;;;;;6221683;23;20055;-78
2023/09/21 06:39:21;;;;;;;22.48;13.50;;;21.30;99.90;;;;;;6211285;23;20028;-77
2023/09/21 06:41:48;;;;;;;22.73;14.65;;;21.30;99.90;;;;;;6183860;23;20071;-80
2023/09/21 06:44:18;;;;;;;21.55;14.15;;;21.30;99.90;;;;;;6216150;23;20017;-79
2023/09/21 06:46:47;;;;;;;27.45;15.60;;;21.30;99.90;;;;;;6218036;23;20450;-79
2023/09/21 06:49:14;;;;;;;23.67;15.35;;;21.30;99.90;;;;;;6220222;23;20084;-79
2023/09/21 06:51:45;;;;;;;23.27;13.65;;;21.40;99.90;;;;;;6185122;23;20025;-77
2023/09/21 06:54:12;;;;;;;22.02;13.48;;;21.40;99.90;;;;;;6212119;23;20032;-78
2023/09/21 06:56:40;;;;;;;19.95;12.27;;;21.40;99.90;;;;;;6214479;23;20035;-79
2023/09/21 06:59:08;;;;;;;21.42;14.70;;;21.50;99.90;;;;;;6216855;23;20032;-79
2023/09/21 07:01:35;;;;;;;17.25;10.30;;;21.60;99.90;;;;;;6191736;23;20036;-79
2023/09/21 07:04:05;;;;;;;19.85;11.07;;;21.70;99.90;;;;;;6224920;23;20016;-80
2023/09/21 07:06:32;;;;;;;32.28;14.90;;;21.70;99.90;;;;;;6216159;23;20104;-79
2023/09/21 07:09:02;;;;;;;30.17;21.75;;;22.00;99.90;;;;;;6183051;23;20021;-79
2023/09/21 07:11:30;;;;;;;33.33;21.73;;;22.50;99.90;;;;;;6185668;23;20032;-82
2023/09/21 07:13:57;;;;;;;37.63;23.00;;;22.90;99.90;;;;;;6187410;23;20025;-78
2023/09/21 07:16:26;;;;;;;36.85;20.25;;;23.30;99.90;;;;;;6187977;23;20100;-78
2023/09/21 07:18:54;;;;;;;24.83;15.05;;;23.80;99.90;;;;;;6154305;23;20017;-80
2023/09/21 07:21:23;;;;;;;27.50;14.82;;;24.30;99.90;;;;;;6180691;23;20027;-80
2023/09/21 07:23:50;;;;;;;28.73;15.30;;;24.60;99.90;;;;;;6183016;23;20504;-78
2023/09/21 07:48:29;;;;;;;26.23;15.57;;;24.70;99.90;;;;;;6159670;22;21683;-86
2023/09/21 07:54:57;;;;;;;43.15;27.42;;;24.40;99.90;;;;;;6052989;23;20273;-83
2023/09/21 07:57:25;;;;;;;29.05;14.63;;;24.40;99.90;;;;;;6188623;23;20126;-84
2023/09/21 07:59:52;;;;;;;28.73;13.77;;;24.40;99.90;;;;;;6185866;23;20060;-85
2023/09/21 08:02:22;;;;;;;21.95;14.07;;;24.30;99.90;;;;;;6141086;23;20112;-85
2023/09/21 08:04:53;;;;;;;32.83;22.88;;;24.10;99.90;;;;;;6164749;23;20440;-85
2023/09/21 08:07:25;;;;;;;25.73;14.15;;;24.10;99.90;;;;;;6184972;23;20115;-86
2023/09/21 08:09:54;;;;;;;29.75;14.07;;;24.30;99.90;;;;;;6187839;23;20023;-85
2023/09/21 08:12:24;;;;;;;22.75;14.57;;;24.30;99.90;;;;;;6213837;23;20016;-85
2023/09/21 08:14:51;;;;;;;24.50;15.02;;;24.40;99.90;;;;;;6215922;23;20028;-84
2023/09/21 08:17:22;;;;;;;22.80;13.20;;;24.40;99.90;;;;;;6220125;23;20028;-87
2023/09/21 08:19:49;;;;;;;21.65;11.60;;;24.50;99.90;;;;;;6220082;23;20078;-85
2023/09/21 08:22:20;;;;;;;24.00;14.98;;;24.90;99.90;;;;;;6186089;23;20020;-87
2023/09/21 08:24:47;;;;;;;29.60;17.33;;;25.20;99.90;;;;;;6223225;23;20278;-85
2023/09/21 08:27:39;;;;;;;27.48;14.15;;;25.50;99.90;;;;;;6185969;23;20075;-85
2023/09/21 08:30:25;;;;;;;20.38;9.00;;;25.70;99.90;;;;;;6196338;23;20032;-85
2023/09/21 08:33:11;;;;;;;17.95;9.82;;;25.50;99.90;;;;;;6155279;23;20051;-85
2023/09/21 08:35:43;;;;;;;15.15;7.53;;;25.50;99.90;;;;;;6175711;23;20128;-86
2023/09/21 08:38:23;;;;;;;13.27;6.85;;;25.40;99.90;;;;;;6187374;23;20075;-87
2023/09/21 08:40:58;;;;;;;15.77;8.88;;;25.40;99.90;;;;;;6186175;23;20023;-86
2023/09/21 08:43:32;;;;;;;16.00;8.23;;;25.40;99.90;;;;;;6186059;23;20029;-85
2023/09/21 08:49:52;;;;;;;20.83;8.77;;;25.70;99.90;;;;;;6140725;23;20071;-86
2023/09/21 08:52:40;;;;;;;22.33;11.73;;;25.70;99.90;;;;;;6208729;23;20075;-85
2023/09/21 08:55:10;;;;;;;14.88;7.95;;;25.80;99.90;;;;;;6233497;23;20047;-83
2023/09/21 08:57:40;;;;;;;19.10;7.00;;;25.90;99.90;;;;;;6197011;23;20519;-85
2023/09/21 09:00:10;;;;;;;13.63;6.50;;;25.80;99.90;;;;;;6195771;23;20024;-86
2023/09/21 09:02:37;;;;;;;17.10;7.30;;;25.90;99.90;;;;;;6191293;23;20024;-86
2023/09/21 09:05:11;;;;;;;19.45;7.53;;;25.70;99.90;;;;;;6191799;23;20081;-84
2023/09/21 09:07:47;;;;;;;16.38;7.45;;;25.80;99.90;;;;;;6179468;23;20070;-82
2023/09/21 09:10:25;;;;;;;12.00;6.78;;;25.80;99.90;;;;;;6230363;23;20021;-83
2023/09/21 09:13:05;;;;;;;14.13;8.50;;;25.80;99.90;;;;;;6238311;23;20013;-86
2023/09/21 09:15:37;;;;;;;21.17;11.13;;;26.00;99.90;;;;;;6195049;23;20112;-85
2023/09/21 09:18:05;;;;;;;19.20;8.48;;;26.20;99.90;;;;;;6225642;23;20084;-85
2023/09/21 09:20:33;;;;;;;16.55;7.90;;;26.30;99.90;;;;;;6222001;23;20052;-83
2023/09/21 09:23:02;;;;;;;14.00;7.97;;;26.50;99.90;;;;;;6201412;23;20016;-85
2023/09/21 09:25:30;;;;;;;17.08;6.95;;;26.50;99.90;;;;;;6236985;23;20031;-83
2023/09/21 09:28:04;;;;;;;20.77;8.88;;;26.70;99.90;;;;;;6247480;22;20074;-83
2023/09/21 09:30:31;;;;;;;19.63;8.55;;;26.90;99.90;;;;;;6206704;23;20090;-83
2023/09/21 09:33:02;;;;;;;19.83;9.05;;;26.90;99.90;;;;;;6193750;23;20021;-85
2023/09/21 09:35:30;;;;;;;17.45;7.00;;;26.80;99.90;;;;;;6189814;23;20043;-83
2023/09/21 09:37:59;;;;;;;21.38;14.45;;;26.90;99.90;;;;;;6222049;23;20024;-84
2023/09/21 09:40:30;;;;;;;16.77;6.28;;;26.90;99.90;;;;;;6222304;23;20095;-85
2023/09/21 09:42:59;;;;;;;17.88;7.72;;;26.80;99.90;;;;;;6227080;23;20013;-84
2023/09/21 09:45:27;;;;;;;17.70;8.05;;;26.70;99.90;;;;;;6211782;23;20044;-84
2023/09/21 09:52:07;;;;;;;14.23;6.57;;;26.70;99.90;;;;;;6072011;23;20085;-83
2023/09/21 10:48:43;;;;;;;;;;;;;;;;;;;;;
2023/09/21 13:26:22;;;;;;;22.48;8.50;;;23.40;99.90;;;;;;6151396;23;20191;-77
2023/09/21 13:28:49;;;;;;;22.92;8.35;;;23.80;99.90;;;;;;6189698;23;20025;-77
2023/09/21 13:31:22;;;;;;;18.38;7.22;;;24.10;99.90;;;;;;6191961;23;20016;-77
2023/09/21 13:33:51;;;;;;;19.63;7.22;;;24.50;99.90;;;;;;6157641;23;20097;-75
2023/09/21 13:36:19;;;;;;;28.25;9.27;;;24.80;99.90;;;;;;6184349;23;20120;-78
2023/09/21 13:38:50;;;;;;;17.45;6.25;;;25.10;99.90;;;;;;6186550;23;20017;-78
2023/09/21 13:41:18;;;;;;;18.00;5.95;;;25.50;99.90;;;;;;6188429;23;20025;-76
2023/09/21 13:43:47;;;;;;;13.15;6.18;;;25.70;99.90;;;;;;6204086;23;20028;-78
2023/09/21 13:46:16;;;;;;;19.17;6.57;;;26.00;99.90;;;;;;6210007;23;20005;-75
2023/09/21 13:48:43;;;;;;;20.73;7.45;;;26.00;99.90;;;;;;6213269;23;20013;-76
2023/09/21 13:51:11;;;;;;;15.93;5.57;;;25.90;99.90;;;;;;6197135;23;20024;-78
2023/09/21 13:53:39;;;;;;;19.88;5.70;;;25.80;99.90;;;;;;6187163;23;20041;-76
2023/09/21 13:56:06;;;;;;;19.27;7.68;;;25.40;99.90;;;;;;6196249;23;20057;-77
2023/09/21 13:58:34;;;;;;;19.13;8.57;;;25.40;99.90;;;;;;6199630;23;20349;-76
2023/09/21 14:01:03;;;;;;;15.00;5.35;;;25.40;99.90;;;;;;6208685;23;20017;-77
2023/09/21 14:03:31;;;;;;;17.63;5.13;;;25.40;99.90;;;;;;6198254;23;20028;-76
2023/09/21 14:05:59;;;;;;;21.83;6.00;;;25.40;99.90;;;;;;6197298;23;20025;-74
2023/09/21 14:08:26;;;;;;;18.42;5.90;;;25.50;99.90;;;;;;6199723;23;20043;-76
2023/09/21 14:10:54;;;;;;;19.10;6.40;;;25.70;99.90;;;;;;6203088;23;20021;-74
2023/09/21 14:13:22;;;;;;;14.30;6.55;;;25.80;99.90;;;;;;6207213;23;20049;-74
2023/09/21 14:15:50;;;;;;;20.77;6.43;;;26.00;99.90;;;;;;6208529;23;20009;-74
2023/09/21 14:18:19;;;;;;;19.95;7.10;;;26.10;99.90;;;;;;6196452;23;20453;-77
2023/09/21 14:20:46;;;;;;;14.45;7.03;;;26.00;99.90;;;;;;6194565;23;20029;-76
2023/09/21 14:23:13;;;;;;;16.80;7.65;;;26.20;99.90;;;;;;6183948;23;20025;-77
2023/09/21 14:25:41;;;;;;;21.15;7.20;;;26.20;99.90;;;;;;6183535;23;20021;-75
2023/09/21 14:28:08;;;;;;;18.73;7.85;;;26.00;99.90;;;;;;6194318;23;20391;-77
2023/09/21 14:30:36;;;;;;;13.65;6.68;;;26.00;99.90;;;;;;6184976;23;20021;-75
2023/09/21 14:33:07;;;;;;;19.92;7.57;;;25.90;99.90;;;;;;6187361;23;20032;-75
2023/09/21 14:35:36;;;;;;;23.52;7.63;;;25.80;99.90;;;;;;6187477;23;20088;-78
2023/09/21 14:38:03;;;;;;;20.63;6.40;;;25.80;99.90;;;;;;6187873;23;20021;-75
2023/09/21 14:40:31;;;;;;;21.38;6.00;;;25.80;99.90;;;;;;6190816;23;20092;-76
2023/09/21 14:42:59;;;;;;;16.52;6.53;;;25.70;99.90;;;;;;6180064;23;20100;-76
2023/09/21 14:45:26;;;;;;;14.32;6.75;;;25.40;99.90;;;;;;6179701;23;20029;-74
2023/09/21 14:47:55;;;;;;;17.17;6.13;;;25.30;99.90;;;;;;6181586;23;20346;-77
2023/09/21 14:50:22;;;;;;;14.18;6.05;;;25.20;99.90;;;;;;6188635;23;20044;-73
2023/09/21 14:52:52;;;;;;;19.17;6.10;;;25.20;99.90;;;;;;6190088;23;20021;-75
2023/09/21 14:55:20;;;;;;;15.90;5.72;;;25.20;99.90;;;;;;6192086;23;20013;-78
2023/09/21 14:57:49;;;;;;;14.25;6.30;;;25.00;99.90;;;;;;6194596;23;20021;-75
2023/09/21 15:00:18;;;;;;;16.35;6.55;;;24.90;99.90;;;;;;6183839;23;20032;-77
2023/09/21 15:02:46;;;;;;;21.00;6.82;;;25.00;99.90;;;;;;6185096;23;20550;-74
2023/09/21 15:05:13;;;;;;;17.77;6.68;;;25.20;99.90;;;;;;6199980;23;20031;-79
2023/09/21 15:07:41;;;;;;;18.88;6.50;;;25.30;99.90;;;;;;6201764;23;20024;-75
2023/09/21 15:10:11;;;;;;;19.42;7.60;;;25.30;99.90;;;;;;6184881;23;20045;-74
2023/09/21 15:12:40;;;;;;;15.07;6.93;;;25.40;99.90;;;;;;6193559;23;20017;-73
2023/09/21 15:15:17;;;;;;;17.15;7.55;;;25.60;99.90;;;;;;6187324;23;20048;-74
2023/09/21 15:17:45;;;;;;;25.98;12.27;;;25.70;99.90;;;;;;6190072;23;20021;-78
2023/09/21 15:20:12;;;;;;;19.60;6.93;;;25.90;99.90;;;;;;6187407;23;20025;-76
2023/09/21 15:22:40;;;;;;;27.33;8.68;;;25.90;99.90;;;;;;6189118;23;20598;-78
2023/09/21 15:25:08;;;;;;;17.83;7.90;;;25.60;99.90;;;;;;6194219;23;20013;-75
2023/09/21 15:27:37;;;;;;;23.67;8.02;;;25.70;99.90;;;;;;6193498;23;20068;-76
2023/09/21 15:30:05;;;;;;;18.90;8.55;;;25.50;99.90;;;;;;6185135;23;20028;-78
2023/09/21 15:32:32;;;;;;;21.33;8.18;;;25.50;99.90;;;;;;6185939;23;20025;-75
2023/09/21 15:35:03;;;;;;;16.70;7.03;;;25.50;99.90;;;;;;6180681;23;20021;-77
2023/09/21 15:37:33;;;;;;;15.93;5.90;;;25.40;99.90;;;;;;6189095;23;20148;-76
2023/09/21 15:40:01;;;;;;;17.60;6.28;;;25.40;99.90;;;;;;6181442;23;20017;-76
2023/09/21 15:42:29;;;;;;;21.52;6.47;;;25.00;99.90;;;;;;6181529;23;20017;-75
2023/09/21 15:44:58;;;;;;;15.98;6.20;;;24.90;99.90;;;;;;6184130;23;20021;-76
2023/09/21 15:47:26;;;;;;;15.60;6.75;;;24.70;99.90;;;;;;6183232;23;20032;-79
2023/09/21 15:49:53;;;;;;;15.82;6.90;;;24.60;99.90;;;;;;6180462;23;20035;-78
2023/09/21 15:52:21;;;;;;;18.85;6.70;;;24.60;99.90;;;;;;6179768;23;20072;-78
2023/09/21 15:54:48;;;;;;;20.30;6.95;;;24.50;99.90;;;;;;6192025;23;20017;-79
2023/09/21 15:57:15;;;;;;;18.05;6.70;;;24.30;99.90;;;;;;6184150;23;20028;-75
2023/09/21 15:59:43;;;;;;;14.43;5.85;;;24.20;99.90;;;;;;6181700;23;20028;-78
2023/09/21 16:02:13;;;;;;;17.67;6.60;;;24.10;99.90;;;;;;6181180;23;20372;-76
2023/09/21 16:04:41;;;;;;;17.00;6.95;;;24.00;99.90;;;;;;6181956;23;20028;-77
2023/09/21 16:07:08;;;;;;;19.63;10.02;;;23.90;99.90;;;;;;6194636;23;20052;-76
2023/09/21 16:09:36;;;;;;;20.80;8.45;;;23.90;99.90;;;;;;6194744;23;20025;-76
2023/09/21 16:12:03;;;;;;;19.88;10.10;;;23.90;99.90;;;;;;6185597;23;20347;-76
2023/09/21 16:14:31;;;;;;;20.20;8.82;;;23.90;99.90;;;;;;6189446;23;20028;-77
2023/09/21 16:17:02;;;;;;;20.52;7.00;;;23.80;99.90;;;;;;6198688;23;20017;-74
2023/09/21 16:19:31;;;;;;;19.20;7.70;;;23.80;99.90;;;;;;6181536;23;20021;-75
2023/09/21 16:21:59;;;;;;;21.02;8.60;;;23.80;99.90;;;;;;6194988;23;20013;-77
2023/09/21 16:24:26;;;;;;;24.05;10.70;;;23.70;99.90;;;;;;6190806;23;20355;-75
2023/09/21 16:26:58;;;;;;;21.80;8.90;;;23.70;99.90;;;;;;6201376;23;20021;-75
2023/09/21 16:29:25;;;;;;;22.10;10.52;;;23.60;99.90;;;;;;6200454;23;20029;-73
2023/09/21 16:31:53;;;;;;;20.75;8.07;;;23.50;99.90;;;;;;6189402;23;20044;-74
2023/09/21 16:34:21;;;;;;;28.17;12.18;;;23.40;99.90;;;;;;6192977;23;20556;-77
2023/09/21 16:36:50;;;;;;;16.05;7.50;;;23.30;99.90;;;;;;6193488;23;20017;-74
2023/09/21 16:39:17;;;;;;;27.30;10.07;;;23.20;99.90;;;;;;6180758;23;20017;-76
2023/09/21 16:41:45;;;;;;;21.30;10.15;;;23.00;99.90;;;;;;6183764;23;20083;-77
2023/09/21 16:44:13;;;;;;;27.52;10.02;;;22.80;99.90;;;;;;6186150;23;20056;-76